sensor_id;sensor_type;location;lat;lon;timestamp;temperature;humidity
4725;DHT22;2376;53.544;10.226;2024-03-17T00:01:56;6.70;99.90
4725;DHT22;2376;53.544;10.226;2024-03-17T00:04:22;6.70;99.90
4725;DHT22;2376;53.544;10.226;2024-03-17T00:06:50;6.60;99.90
4725;DHT22;2376;53.544;10.226;2024-03-17T00:09:16;6.60;99.90
4725;DHT22;2376;53.544;10.226;2024-03-17T00:11:44;6.60;99.90
4725;DHT22;2376;53.544;10.226;2024-03-17T00:14:09;6.50;99.90
4725;DHT22;2376;53.544;10.226;2024-03-17T00:16:37;6.50;99.90
4725;DHT22;2376;53.544;10.226;2024-03-17T00:19:02;6.50;99.90
4725;DHT22;2376;53.544;10.226;2024-03-17T00:21:29;6.50;99.90
4725;DHT22;2376;53.544;10.226;2024-03-17T00:23:57;6.50;99.90
4725;DHT22;2376;53.544;10.226;2024-03-17T00:26:23;6.50;99.90
4725;DHT22;2376;53.544;10.226;2024-03-17T00:28:49;6.50;99.90
4725;DHT22;2376;53.544;10.226;2024-03-17T00:31:17;6.50;99.90
4725;DHT22;2376;53.544;10.226;2024-03-17T00:33:43;6.40;99.90
4725;DHT22;2376;53.544;10.226;2024-03-17T00:36:12;6.40;99.90
4725;DHT22;2376;53.544;10.226;2024-03-17T00:38:38;6.40;99.90
4725;DHT22;2376;53.544;10.226;2024-03-17T00:41:06;6.40;99.90
4725;DHT22;2376;53.544;10.226;2024-03-17T00:43:32;6.30;99.90
4725;DHT22;2376;53.544;10.226;2024-03-17T00:45:59;6.30;99.90
4725;DHT22;2376;53.544;10.226;2024-03-17T00:48:25;6.30;99.90
4725;DHT22;2376;53.544;10.226;2024-03-17T00:50:55;6.30;99.90
4725;DHT22;2376;53.544;10.226;2024-03-17T00:53:21;6.30;99.90
4725;DHT22;2376;53.544;10.226;2024-03-17T00:55:51;6.30;99.90
4725;DHT22;2376;53.544;10.226;2024-03-17T00:58:19;6.30;99.90
4725;DHT22;2376;53.544;10.226;2024-03-17T01:00:46;6.30;99.90
4725;DHT22;2376;53.544;10.226;2024-03-17T01:03:13;6.30;99.90
4725;DHT22;2376;53.544;10.226;2024-03-17T01:05:40;6.30;99.90
4725;DHT22;2376;53.544;10.226;2024-03-17T01:08:08;6.30;99.90
4725;DHT22;2376;53.544;10.226;2024-03-17T01:10:37;6.30;99.90
4725;DHT22;2376;53.544;10.226;2024-03-17T01:13:03;6.30;99.90
4725;DHT22;2376;53.544;10.226;2024-03-17T01:15:32;6.40;99.90
4725;DHT22;2376;53.544;10.226;2024-03-17T01:17:57;6.40;99.90
4725;DHT22;2376;53.544;10.226;2024-03-17T01:20:25;6.40;99.90
4725;DHT22;2376;53.544;10.226;2024-03-17T01:22:51;6.40;99.90
4725;DHT22;2376;53.544;10.226;2024-03-17T01:25:18;6.40;99.90
4725;DHT22;2376;53.544;10.226;2024-03-17T01:27:44;6.50;99.90
4725;DHT22;2376;53.544;10.226;2024-03-17T01:30:11;6.50;99.90
4725;DHT22;2376;53.544;10.226;2024-03-17T01:32:39;6.50;99.90
4725;DHT22;2376;53.544;10.226;2024-03-17T01:35:06;6.50;99.90
4725;DHT22;2376;53.544;10.226;2024-03-17T01:37:32;6.50;99.90
4725;DHT22;2376;53.544;10.226;2024-03-17T01:39:59;6.60;99.90
4725;DHT22;2376;53.544;10.226;2024-03-17T01:42:25;6.60;99.90
4725;DHT22;2376;53.544;10.226;2024-03-17T01:44:52;6.60;99.90
4725;DHT22;2376;53.544;10.226;2024-03-17T01:47:18;6.60;99.90
4725;DHT22;2376;53.544;10.226;2024-03-17T01:49:47;6.60;99.90
4725;DHT22;2376;53.544;10.226;2024-03-17T01:52:14;6.50;99.90
4725;DHT22;2376;53.544;10.226;2024-03-17T01:54:42;6.50;99.90
4725;DHT22;2376;53.544;10.226;2024-03-17T01:57:08;6.50;99.90
4725;DHT22;2376;53.544;10.226;2024-03-17T01:59:35;6.50;99.90
4725;DHT22;2376;53.544;10.226;2024-03-17T02:02:02;6.40;99.90
4725;DHT22;2376;53.544;10.226;2024-03-17T02:04:29;6.40;99.90
4725;DHT22;2376;53.544;10.226;2024-03-17T02:06:56;6.40;99.90
4725;DHT22;2376;53.544;10.226;2024-03-17T02:09:23;6.40;99.90
4725;DHT22;2376;53.544;10.226;2024-03-17T02:11:49;6.30;99.90
4725;DHT22;2376;53.544;10.226;2024-03-17T02:14:15;6.30;99.90
4725;DHT22;2376;53.544;10.226;2024-03-17T02:16:42;6.30;99.90
4725;DHT22;2376;53.544;10.226;2024-03-17T02:19:09;6.20;99.90
4725;DHT22;2376;53.544;10.226;2024-03-17T02:21:35;6.20;99.90
4725;DHT22;2376;53.544;10.226;2024-03-17T02:24:04;6.20;99.90
4725;DHT22;2376;53.544;10.226;2024-03-17T02:26:30;6.20;99.90
4725;DHT22;2376;53.544;10.226;2024-03-17T02:28:57;6.10;99.90
4725;DHT22;2376;53.544;10.226;2024-03-17T02:31:23;6.10;99.90
4725;DHT22;2376;53.544;10.226;2024-03-17T02:33:49;6.10;99.90
4725;DHT22;2376;53.544;10.226;2024-03-17T02:36:15;6.10;99.90
4725;DHT22;2376;53.544;10.226;2024-03-17T02:38:43;6.00;99.90
4725;DHT22;2376;53.544;10.226;2024-03-17T02:41:37;6.00;99.90
4725;DHT22;2376;53.544;10.226;2024-03-17T02:44:04;6.00;99.90
4725;DHT22;2376;53.544;10.226;2024-03-17T02:46:31;5.90;99.90
4725;DHT22;2376;53.544;10.226;2024-03-17T02:48:59;5.90;99.90
4725;DHT22;2376;53.544;10.226;2024-03-17T02:51:26;5.90;99.90
4725;DHT22;2376;53.544;10.226;2024-03-17T02:53:52;5.90;99.90
4725;DHT22;2376;53.544;10.226;2024-03-17T02:56:19;5.80;99.90
4725;DHT22;2376;53.544;10.226;2024-03-17T02:58:48;5.80;99.90
4725;DHT22;2376;53.544;10.226;2024-03-17T03:01:16;5.80;99.90
4725;DHT22;2376;53.544;10.226;2024-03-17T03:03:43;5.70;99.90
4725;DHT22;2376;53.544;10.226;2024-03-17T03:06:10;5.60;99.90
4725;DHT22;2376;53.544;10.226;2024-03-17T03:08:38;5.60;99.90
4725;DHT22;2376;53.544;10.226;2024-03-17T03:11:07;5.50;99.90
4725;DHT22;2376;53.544;10.226;2024-03-17T03:13:36;5.50;99.90
4725;DHT22;2376;53.544;10.226;2024-03-17T03:16:06;5.40;99.90
4725;DHT22;2376;53.544;10.226;2024-03-17T03:18:33;5.30;99.90
4725;DHT22;2376;53.544;10.226;2024-03-17T03:21:00;5.40;99.90
4725;DHT22;2376;53.544;10.226;2024-03-17T03:23:27;5.20;99.90
4725;DHT22;2376;53.544;10.226;2024-03-17T03:25:57;5.20;99.90
4725;DHT22;2376;53.544;10.226;2024-03-17T03:28:24;5.10;99.90
4725;DHT22;2376;53.544;10.226;2024-03-17T03:30:52;5.10;99.90
4725;DHT22;2376;53.544;10.226;2024-03-17T03:33:20;5.10;99.90
4725;DHT22;2376;53.544;10.226;2024-03-17T03:35:47;5.00;99.90
4725;DHT22;2376;53.544;10.226;2024-03-17T03:38:16;4.70;99.90
4725;DHT22;2376;53.544;10.226;2024-03-17T03:40:43;4.80;99.90
4725;DHT22;2376;53.544;10.226;2024-03-17T03:43:10;4.80;99.90
4725;DHT22;2376;53.544;10.226;2024-03-17T03:45:38;4.80;99.90
4725;DHT22;2376;53.544;10.226;2024-03-17T03:48:06;4.80;99.90
4725;DHT22;2376;53.544;10.226;2024-03-17T03:50:38;4.70;99.90
4725;DHT22;2376;53.544;10.226;2024-03-17T03:53:04;4.70;99.90
4725;DHT22;2376;53.544;10.226;2024-03-17T03:55:32;4.60;99.90
4725;DHT22;2376;53.544;10.226;2024-03-17T03:57:58;4.60;99.90
4725;DHT22;2376;53.544;10.226;2024-03-17T04:00:25;4.50;99.90
4725;DHT22;2376;53.544;10.226;2024-03-17T04:02:55;4.50;99.90
4725;DHT22;2376;53.544;10.226;2024-03-17T04:05:22;4.40;99.90
4725;DHT22;2376;53.544;10.226;2024-03-17T04:07:50;4.30;99.90
4725;DHT22;2376;53.544;10.226;2024-03-17T04:10:17;4.30;99.90
4725;DHT22;2376;53.544;10.226;2024-03-17T04:12:44;4.30;99.90
4725;DHT22;2376;53.544;10.226;2024-03-17T04:15:11;4.30;99.90
4725;DHT22;2376;53.544;10.226;2024-03-17T04:17:39;4.30;99.90
4725;DHT22;2376;53.544;10.226;2024-03-17T04:20:08;4.30;99.90
4725;DHT22;2376;53.544;10.226;2024-03-17T04:22:39;4.20;99.90
4725;DHT22;2376;53.544;10.226;2024-03-17T04:25:07;4.20;99.90
4725;DHT22;2376;53.544;10.226;2024-03-17T04:27:34;4.20;99.90
4725;DHT22;2376;53.544;10.226;2024-03-17T04:30:01;4.10;99.90
4725;DHT22;2376;53.544;10.226;2024-03-17T04:32:31;4.20;99.90
4725;DHT22;2376;53.544;10.226;2024-03-17T04:34:58;4.00;99.90
4725;DHT22;2376;53.544;10.226;2024-03-17T04:37:25;3.90;99.90
4725;DHT22;2376;53.544;10.226;2024-03-17T04:39:52;4.00;99.90
4725;DHT22;2376;53.544;10.226;2024-03-17T04:42:20;4.00;99.90
4725;DHT22;2376;53.544;10.226;2024-03-17T04:44:47;4.10;99.90
4725;DHT22;2376;53.544;10.226;2024-03-17T04:47:14;4.10;99.90
4725;DHT22;2376;53.544;10.226;2024-03-17T04:49:42;4.10;99.90
4725;DHT22;2376;53.544;10.226;2024-03-17T04:52:10;4.20;99.90
4725;DHT22;2376;53.544;10.226;2024-03-17T04:54:37;4.20;99.90
4725;DHT22;2376;53.544;10.226;2024-03-17T04:57:03;4.30;99.90
4725;DHT22;2376;53.544;10.226;2024-03-17T04:59:34;4.30;99.90
4725;DHT22;2376;53.544;10.226;2024-03-17T05:02:01;4.30;99.90
4725;DHT22;2376;53.544;10.226;2024-03-17T05:04:28;4.30;99.90
4725;DHT22;2376;53.544;10.226;2024-03-17T05:06:55;4.30;99.90
4725;DHT22;2376;53.544;10.226;2024-03-17T05:09:23;4.30;99.90
4725;DHT22;2376;53.544;10.226;2024-03-17T05:11:50;4.30;99.90
4725;DHT22;2376;53.544;10.226;2024-03-17T05:14:18;4.30;99.90
4725;DHT22;2376;53.544;10.226;2024-03-17T05:16:48;4.30;99.90
4725;DHT22;2376;53.544;10.226;2024-03-17T05:19:15;4.30;99.90
4725;DHT22;2376;53.544;10.226;2024-03-17T05:21:43;4.30;99.90
4725;DHT22;2376;53.544;10.226;2024-03-17T05:24:11;4.30;99.90
4725;DHT22;2376;53.544;10.226;2024-03-17T05:26:38;4.30;99.90
4725;DHT22;2376;53.544;10.226;2024-03-17T05:29:05;4.20;99.90
4725;DHT22;2376;53.544;10.226;2024-03-17T05:31:32;4.30;99.90
4725;DHT22;2376;53.544;10.226;2024-03-17T05:34:00;4.30;99.90
4725;DHT22;2376;53.544;10.226;2024-03-17T05:36:26;4.20;99.90
4725;DHT22;2376;53.544;10.226;2024-03-17T05:38:58;4.20;99.90
4725;DHT22;2376;53.544;10.226;2024-03-17T05:41:24;4.20;99.90
4725;DHT22;2376;53.544;10.226;2024-03-17T05:43:51;4.20;99.90
4725;DHT22;2376;53.544;10.226;2024-03-17T05:46:18;4.10;99.90
4725;DHT22;2376;53.544;10.226;2024-03-17T05:48:45;4.20;99.90
4725;DHT22;2376;53.544;10.226;2024-03-17T05:51:13;4.20;99.90
4725;DHT22;2376;53.544;10.226;2024-03-17T05:53:41;4.10;99.90
4725;DHT22;2376;53.544;10.226;2024-03-17T05:56:10;4.20;99.90
4725;DHT22;2376;53.544;10.226;2024-03-17T05:58:38;4.20;99.90
4725;DHT22;2376;53.544;10.226;2024-03-17T06:01:05;4.20;99.90
4725;DHT22;2376;53.544;10.226;2024-03-17T06:03:33;4.20;99.90
4725;DHT22;2376;53.544;10.226;2024-03-17T06:06:01;4.20;99.90
4725;DHT22;2376;53.544;10.226;2024-03-17T06:08:30;4.20;99.90
4725;DHT22;2376;53.544;10.226;2024-03-17T06:10:57;4.20;99.90
4725;DHT22;2376;53.544;10.226;2024-03-17T06:13:25;4.20;99.90
4725;DHT22;2376;53.544;10.226;2024-03-17T06:15:52;4.30;99.90
4725;DHT22;2376;53.544;10.226;2024-03-17T06:18:19;4.30;99.90
4725;DHT22;2376;53.544;10.226;2024-03-17T06:20:46;4.30;99.90
4725;DHT22;2376;53.544;10.226;2024-03-17T06:23:14;4.30;99.90
4725;DHT22;2376;53.544;10.226;2024-03-17T06:25:43;4.30;99.90
4725;DHT22;2376;53.544;10.226;2024-03-17T06:28:11;4.40;99.90
4725;DHT22;2376;53.544;10.226;2024-03-17T06:30:39;4.40;99.90
4725;DHT22;2376;53.544;10.226;2024-03-17T06:33:06;4.40;99.90
4725;DHT22;2376;53.544;10.226;2024-03-17T06:35:36;4.50;99.90
4725;DHT22;2376;53.544;10.226;2024-03-17T06:38:03;4.50;99.90
4725;DHT22;2376;53.544;10.226;2024-03-17T06:40:29;4.50;99.90
4725;DHT22;2376;53.544;10.226;2024-03-17T06:42:58;4.60;99.90
4725;DHT22;2376;53.544;10.226;2024-03-17T06:45:24;4.70;99.90
4725;DHT22;2376;53.544;10.226;2024-03-17T06:47:51;4.70;99.90
4725;DHT22;2376;53.544;10.226;2024-03-17T06:50:18;4.80;99.90
4725;DHT22;2376;53.544;10.226;2024-03-17T06:52:45;4.80;99.90
4725;DHT22;2376;53.544;10.226;2024-03-17T06:55:12;4.90;99.90
4725;DHT22;2376;53.544;10.226;2024-03-17T06:57:41;4.90;99.90
4725;DHT22;2376;53.544;10.226;2024-03-17T07:00:11;5.00;99.90
4725;DHT22;2376;53.544;10.226;2024-03-17T07:02:39;5.10;99.90
4725;DHT22;2376;53.544;10.226;2024-03-17T07:05:11;5.20;99.90
4725;DHT22;2376;53.544;10.226;2024-03-17T07:07:39;5.30;99.90
4725;DHT22;2376;53.544;10.226;2024-03-17T07:10:07;5.40;99.90
4725;DHT22;2376;53.544;10.226;2024-03-17T07:12:34;5.50;99.90
4725;DHT22;2376;53.544;10.226;2024-03-17T07:15:00;5.60;99.90
4725;DHT22;2376;53.544;10.226;2024-03-17T07:17:29;5.60;99.90
4725;DHT22;2376;53.544;10.226;2024-03-17T07:19:55;5.70;99.90
4725;DHT22;2376;53.544;10.226;2024-03-17T07:22:22;5.90;99.90
4725;DHT22;2376;53.544;10.226;2024-03-17T07:24:51;6.00;99.90
4725;DHT22;2376;53.544;10.226;2024-03-17T07:27:21;6.10;99.90
4725;DHT22;2376;53.544;10.226;2024-03-17T07:29:48;6.20;99.90
4725;DHT22;2376;53.544;10.226;2024-03-17T07:32:14;6.30;99.90
4725;DHT22;2376;53.544;10.226;2024-03-17T07:34:42;6.40;99.90
4725;DHT22;2376;53.544;10.226;2024-03-17T07:37:09;6.40;99.90
4725;DHT22;2376;53.544;10.226;2024-03-17T07:39:36;6.30;99.90
4725;DHT22;2376;53.544;10.226;2024-03-17T07:42:02;6.40;99.90
4725;DHT22;2376;53.544;10.226;2024-03-17T07:44:29;6.50;99.90
4725;DHT22;2376;53.544;10.226;2024-03-17T07:46:59;6.40;99.90
4725;DHT22;2376;53.544;10.226;2024-03-17T07:49:26;6.40;99.90
4725;DHT22;2376;53.544;10.226;2024-03-17T07:51:54;6.60;99.90
4725;DHT22;2376;53.544;10.226;2024-03-17T07:54:23;6.80;99.90
4725;DHT22;2376;53.544;10.226;2024-03-17T07:56:49;6.90;99.90
4725;DHT22;2376;53.544;10.226;2024-03-17T07:59:16;7.00;99.90
4725;DHT22;2376;53.544;10.226;2024-03-17T08:01:43;7.10;99.90
4725;DHT22;2376;53.544;10.226;2024-03-17T08:04:10;7.10;99.90
4725;DHT22;2376;53.544;10.226;2024-03-17T08:06:37;7.20;99.90
4725;DHT22;2376;53.544;10.226;2024-03-17T08:09:05;7.30;99.90
4725;DHT22;2376;53.544;10.226;2024-03-17T08:11:33;7.30;99.90
4725;DHT22;2376;53.544;10.226;2024-03-17T08:14:00;7.40;99.90
4725;DHT22;2376;53.544;10.226;2024-03-17T08:16:27;7.50;99.90
4725;DHT22;2376;53.544;10.226;2024-03-17T08:18:55;7.60;99.90
4725;DHT22;2376;53.544;10.226;2024-03-17T08:21:22;7.50;99.90
4725;DHT22;2376;53.544;10.226;2024-03-17T08:23:49;7.30;99.90
4725;DHT22;2376;53.544;10.226;2024-03-17T08:26:18;7.40;99.90
4725;DHT22;2376;53.544;10.226;2024-03-17T08:28:45;7.30;99.90
4725;DHT22;2376;53.544;10.226;2024-03-17T08:31:12;7.40;99.90
4725;DHT22;2376;53.544;10.226;2024-03-17T08:33:40;7.60;99.90
4725;DHT22;2376;53.544;10.226;2024-03-17T08:36:08;7.60;99.90
4725;DHT22;2376;53.544;10.226;2024-03-17T08:38:37;7.60;99.90
4725;DHT22;2376;53.544;10.226;2024-03-17T08:41:05;7.70;99.90
4725;DHT22;2376;53.544;10.226;2024-03-17T08:43:33;7.70;99.90
4725;DHT22;2376;53.544;10.226;2024-03-17T08:46:02;7.80;99.90
4725;DHT22;2376;53.544;10.226;2024-03-17T08:48:30;7.90;99.90
4725;DHT22;2376;53.544;10.226;2024-03-17T08:50:57;8.00;99.90
4725;DHT22;2376;53.544;10.226;2024-03-17T08:53:25;8.00;99.90
4725;DHT22;2376;53.544;10.226;2024-03-17T08:55:52;8.10;99.90
4725;DHT22;2376;53.544;10.226;2024-03-17T08:58:19;8.20;99.90
4725;DHT22;2376;53.544;10.226;2024-03-17T09:00:47;8.10;99.90
4725;DHT22;2376;53.544;10.226;2024-03-17T09:03:14;8.00;99.90
4725;DHT22;2376;53.544;10.226;2024-03-17T09:05:42;7.90;99.90
4725;DHT22;2376;53.544;10.226;2024-03-17T09:08:16;7.90;99.90
4725;DHT22;2376;53.544;10.226;2024-03-17T09:10:46;7.70;99.90
4725;DHT22;2376;53.544;10.226;2024-03-17T09:13:14;7.70;99.90
4725;DHT22;2376;53.544;10.226;2024-03-17T09:15:41;7.70;99.90
4725;DHT22;2376;53.544;10.226;2024-03-17T09:18:17;7.90;99.90
4725;DHT22;2376;53.544;10.226;2024-03-17T09:20:44;8.00;99.90
4725;DHT22;2376;53.544;10.226;2024-03-17T09:23:11;8.10;99.90
4725;DHT22;2376;53.544;10.226;2024-03-17T09:25:37;7.90;99.90
4725;DHT22;2376;53.544;10.226;2024-03-17T09:28:04;8.00;99.90
4725;DHT22;2376;53.544;10.226;2024-03-17T09:30:32;8.00;99.90
4725;DHT22;2376;53.544;10.226;2024-03-17T09:33:01;8.30;99.90
4725;DHT22;2376;53.544;10.226;2024-03-17T09:35:33;8.40;99.90
4725;DHT22;2376;53.544;10.226;2024-03-17T09:38:03;8.40;99.90
4725;DHT22;2376;53.544;10.226;2024-03-17T09:40:30;8.30;99.90
4725;DHT22;2376;53.544;10.226;2024-03-17T09:42:57;8.30;99.90
4725;DHT22;2376;53.544;10.226;2024-03-17T09:45:26;8.50;99.90
4725;DHT22;2376;53.544;10.226;2024-03-17T09:47:54;8.30;99.90
4725;DHT22;2376;53.544;10.226;2024-03-17T09:50:20;8.30;99.90
4725;DHT22;2376;53.544;10.226;2024-03-17T09:52:48;8.30;99.90
4725;DHT22;2376;53.544;10.226;2024-03-17T09:55:16;8.40;99.90
4725;DHT22;2376;53.544;10.226;2024-03-17T09:57:44;8.50;99.90
4725;DHT22;2376;53.544;10.226;2024-03-17T10:00:14;8.90;99.90
4725;DHT22;2376;53.544;10.226;2024-03-17T10:02:45;9.40;99.90
4725;DHT22;2376;53.544;10.226;2024-03-17T10:05:19;9.30;99.90
4725;DHT22;2376;53.544;10.226;2024-03-17T10:07:48;9.20;99.90
4725;DHT22;2376;53.544;10.226;2024-03-17T10:10:16;9.10;99.90
4725;DHT22;2376;53.544;10.226;2024-03-17T10:12:44;9.10;99.90
4725;DHT22;2376;53.544;10.226;2024-03-17T10:15:11;9.30;99.90
4725;DHT22;2376;53.544;10.226;2024-03-17T10:17:39;9.50;99.90
4725;DHT22;2376;53.544;10.226;2024-03-17T10:20:14;9.40;99.90
4725;DHT22;2376;53.544;10.226;2024-03-17T10:23:01;9.30;99.90
4725;DHT22;2376;53.544;10.226;2024-03-17T10:25:28;9.50;99.90
4725;DHT22;2376;53.544;10.226;2024-03-17T10:27:56;9.40;99.70
4725;DHT22;2376;53.544;10.226;2024-03-17T10:30:23;9.50;99.90
4725;DHT22;2376;53.544;10.226;2024-03-17T10:32:55;9.60;99.90
4725;DHT22;2376;53.544;10.226;2024-03-17T10:35:30;10.00;98.80
4725;DHT22;2376;53.544;10.226;2024-03-17T10:38:00;10.10;97.10
4725;DHT22;2376;53.544;10.226;2024-03-17T10:40:28;10.00;96.30
4725;DHT22;2376;53.544;10.226;2024-03-17T10:42:57;10.00;96.30
4725;DHT22;2376;53.544;10.226;2024-03-17T10:45:24;10.10;97.10
4725;DHT22;2376;53.544;10.226;2024-03-17T10:47:52;9.90;96.90
4725;DHT22;2376;53.544;10.226;2024-03-17T10:50:20;10.00;95.70
4725;DHT22;2376;53.544;10.226;2024-03-17T10:52:48;10.00;94.80
4725;DHT22;2376;53.544;10.226;2024-03-17T10:55:25;10.00;94.90
4725;DHT22;2376;53.544;10.226;2024-03-17T10:57:53;9.90;94.50
4725;DHT22;2376;53.544;10.226;2024-03-17T11:00:22;10.00;94.70
4725;DHT22;2376;53.544;10.226;2024-03-17T11:02:49;10.20;94.10
4725;DHT22;2376;53.544;10.226;2024-03-17T11:05:19;10.40;92.10
4725;DHT22;2376;53.544;10.226;2024-03-17T11:07:48;10.60;90.10
4725;DHT22;2376;53.544;10.226;2024-03-17T11:10:16;10.90;88.10
4725;DHT22;2376;53.544;10.226;2024-03-17T11:12:48;11.30;90.00
4725;DHT22;2376;53.544;10.226;2024-03-17T11:15:49;11.40;82.40
4725;DHT22;2376;53.544;10.226;2024-03-17T11:18:37;11.60;85.00
4725;DHT22;2376;53.544;10.226;2024-03-17T11:21:18;11.90;84.80
4725;DHT22;2376;53.544;10.226;2024-03-17T11:24:05;11.20;75.50
4725;DHT22;2376;53.544;10.226;2024-03-17T11:26:34;10.60;74.90
4725;DHT22;2376;53.544;10.226;2024-03-17T11:29:02;10.50;76.40
4725;DHT22;2376;53.544;10.226;2024-03-17T11:31:40;10.50;74.80
4725;DHT22;2376;53.544;10.226;2024-03-17T11:36:50;10.40;72.80
4725;DHT22;2376;53.544;10.226;2024-03-17T11:39:16;10.70;70.20
4725;DHT22;2376;53.544;10.226;2024-03-17T11:41:47;10.50;72.00
4725;DHT22;2376;53.544;10.226;2024-03-17T11:44:24;10.40;70.70
4725;DHT22;2376;53.544;10.226;2024-03-17T11:46:53;10.70;71.40
4725;DHT22;2376;53.544;10.226;2024-03-17T11:49:22;11.00;69.50
4725;DHT22;2376;53.544;10.226;2024-03-17T11:51:50;11.10;68.60
4725;DHT22;2376;53.544;10.226;2024-03-17T11:54:17;11.20;67.10
4725;DHT22;2376;53.544;10.226;2024-03-17T11:56:46;11.30;66.80
4725;DHT22;2376;53.544;10.226;2024-03-17T11:59:11;11.50;66.10
4725;DHT22;2376;53.544;10.226;2024-03-17T12:01:39;11.70;66.30
4725;DHT22;2376;53.544;10.226;2024-03-17T12:04:07;12.00;67.40
4725;DHT22;2376;53.544;10.226;2024-03-17T12:06:33;12.00;66.40
4725;DHT22;2376;53.544;10.226;2024-03-17T12:09:11;12.00;63.00
4725;DHT22;2376;53.544;10.226;2024-03-17T12:11:40;11.50;63.20
4725;DHT22;2376;53.544;10.226;2024-03-17T12:14:17;11.00;64.30
4725;DHT22;2376;53.544;10.226;2024-03-17T12:16:50;11.20;63.80
4725;DHT22;2376;53.544;10.226;2024-03-17T12:19:18;11.70;64.20
4725;DHT22;2376;53.544;10.226;2024-03-17T12:21:45;12.10;63.10
4725;DHT22;2376;53.544;10.226;2024-03-17T12:24:17;12.00;62.60
4725;DHT22;2376;53.544;10.226;2024-03-17T12:26:44;11.60;63.60
4725;DHT22;2376;53.544;10.226;2024-03-17T12:29:27;11.60;65.10
4725;DHT22;2376;53.544;10.226;2024-03-17T12:31:58;11.30;64.40
4725;DHT22;2376;53.544;10.226;2024-03-17T12:34:27;11.30;64.00
4725;DHT22;2376;53.544;10.226;2024-03-17T12:36:55;11.10;64.70
4725;DHT22;2376;53.544;10.226;2024-03-17T12:39:23;10.90;63.00
4725;DHT22;2376;53.544;10.226;2024-03-17T12:42:06;10.90;64.70
4725;DHT22;2376;53.544;10.226;2024-03-17T12:44:35;11.00;62.90
4725;DHT22;2376;53.544;10.226;2024-03-17T12:47:04;11.30;62.20
4725;DHT22;2376;53.544;10.226;2024-03-17T12:49:33;11.80;63.30
4725;DHT22;2376;53.544;10.226;2024-03-17T12:52:00;11.80;60.50
4725;DHT22;2376;53.544;10.226;2024-03-17T12:54:28;11.90;58.70
4725;DHT22;2376;53.544;10.226;2024-03-17T12:57:04;11.80;61.90
4725;DHT22;2376;53.544;10.226;2024-03-17T12:59:48;11.80;60.80
4725;DHT22;2376;53.544;10.226;2024-03-17T13:02:35;12.00;57.80
4725;DHT22;2376;53.544;10.226;2024-03-17T13:05:17;11.90;56.60
4725;DHT22;2376;53.544;10.226;2024-03-17T13:07:44;11.60;56.50
4725;DHT22;2376;53.544;10.226;2024-03-17T13:10:14;11.50;54.00
4725;DHT22;2376;53.544;10.226;2024-03-17T13:12:41;11.40;53.50
4725;DHT22;2376;53.544;10.226;2024-03-17T13:15:09;11.80;56.20
4725;DHT22;2376;53.544;10.226;2024-03-17T13:17:38;12.30;55.30
4725;DHT22;2376;53.544;10.226;2024-03-17T13:20:06;12.70;57.10
4725;DHT22;2376;53.544;10.226;2024-03-17T13:22:37;12.80;55.90
4725;DHT22;2376;53.544;10.226;2024-03-17T13:25:08;12.30;54.50
4725;DHT22;2376;53.544;10.226;2024-03-17T13:27:35;12.00;54.00
4725;DHT22;2376;53.544;10.226;2024-03-17T13:30:02;11.90;53.50
4725;DHT22;2376;53.544;10.226;2024-03-17T13:32:28;11.80;55.00
4725;DHT22;2376;53.544;10.226;2024-03-17T13:34:56;11.70;54.30
4725;DHT22;2376;53.544;10.226;2024-03-17T13:37:23;11.60;53.60
4725;DHT22;2376;53.544;10.226;2024-03-17T13:39:50;12.00;56.30
4725;DHT22;2376;53.544;10.226;2024-03-17T13:42:17;12.40;54.30
4725;DHT22;2376;53.544;10.226;2024-03-17T13:44:44;12.30;57.00
4725;DHT22;2376;53.544;10.226;2024-03-17T13:47:11;11.80;60.10
4725;DHT22;2376;53.544;10.226;2024-03-17T13:49:39;11.70;61.30
4725;DHT22;2376;53.544;10.226;2024-03-17T13:52:07;11.70;63.60
4725;DHT22;2376;53.544;10.226;2024-03-17T13:54:34;11.70;65.00
4725;DHT22;2376;53.544;10.226;2024-03-17T13:57:01;11.70;64.80
4725;DHT22;2376;53.544;10.226;2024-03-17T13:59:28;11.60;64.40
4725;DHT22;2376;53.544;10.226;2024-03-17T14:01:54;11.40;65.30
4725;DHT22;2376;53.544;10.226;2024-03-17T14:04:21;11.60;67.20
4725;DHT22;2376;53.544;10.226;2024-03-17T14:06:48;12.00;66.40
4725;DHT22;2376;53.544;10.226;2024-03-17T14:09:16;11.70;66.60
4725;DHT22;2376;53.544;10.226;2024-03-17T14:11:44;11.40;68.70
4725;DHT22;2376;53.544;10.226;2024-03-17T14:14:11;11.40;69.50
4725;DHT22;2376;53.544;10.226;2024-03-17T14:16:38;11.20;69.70
4725;DHT22;2376;53.544;10.226;2024-03-17T14:19:06;11.00;70.00
4725;DHT22;2376;53.544;10.226;2024-03-17T14:21:33;11.00;71.60
4725;DHT22;2376;53.544;10.226;2024-03-17T14:23:59;11.00;72.50
4725;DHT22;2376;53.544;10.226;2024-03-17T14:26:30;11.00;71.50
4725;DHT22;2376;53.544;10.226;2024-03-17T14:28:56;10.90;73.30
4725;DHT22;2376;53.544;10.226;2024-03-17T14:31:25;10.80;72.80
4725;DHT22;2376;53.544;10.226;2024-03-17T14:33:52;10.60;74.10
4725;DHT22;2376;53.544;10.226;2024-03-17T14:36:19;10.60;75.70
4725;DHT22;2376;53.544;10.226;2024-03-17T14:38:52;10.50;74.30
4725;DHT22;2376;53.544;10.226;2024-03-17T14:41:18;10.60;75.80
4725;DHT22;2376;53.544;10.226;2024-03-17T14:43:46;10.50;75.10
4725;DHT22;2376;53.544;10.226;2024-03-17T14:46:13;10.40;75.70
4725;DHT22;2376;53.544;10.226;2024-03-17T14:48:40;10.30;75.80
4725;DHT22;2376;53.544;10.226;2024-03-17T14:51:08;10.20;76.20
4725;DHT22;2376;53.544;10.226;2024-03-17T14:53:35;10.10;79.00
4725;DHT22;2376;53.544;10.226;2024-03-17T14:56:08;10.10;79.10
4725;DHT22;2376;53.544;10.226;2024-03-17T14:58:34;10.20;79.10
4725;DHT22;2376;53.544;10.226;2024-03-17T15:01:03;10.20;80.00
4725;DHT22;2376;53.544;10.226;2024-03-17T15:03:29;10.20;82.00
4725;DHT22;2376;53.544;10.226;2024-03-17T15:05:56;10.20;82.50
4725;DHT22;2376;53.544;10.226;2024-03-17T15:08:23;10.20;84.50
4725;DHT22;2376;53.544;10.226;2024-03-17T15:10:50;10.30;87.50
4725;DHT22;2376;53.544;10.226;2024-03-17T15:13:20;10.50;83.90
4725;DHT22;2376;53.544;10.226;2024-03-17T15:15:46;10.50;81.30
4725;DHT22;2376;53.544;10.226;2024-03-17T15:18:15;10.40;85.80
4725;DHT22;2376;53.544;10.226;2024-03-17T15:20:43;10.20;83.00
4725;DHT22;2376;53.544;10.226;2024-03-17T15:23:11;10.10;83.40
4725;DHT22;2376;53.544;10.226;2024-03-17T15:25:37;10.10;90.20
4725;DHT22;2376;53.544;10.226;2024-03-17T15:28:05;10.30;90.30
4725;DHT22;2376;53.544;10.226;2024-03-17T15:30:32;10.40;89.00
4725;DHT22;2376;53.544;10.226;2024-03-17T15:32:59;10.30;86.20
4725;DHT22;2376;53.544;10.226;2024-03-17T15:35:27;10.20;88.40
4725;DHT22;2376;53.544;10.226;2024-03-17T15:37:56;10.40;85.40
4725;DHT22;2376;53.544;10.226;2024-03-17T15:40:23;10.50;85.40
4725;DHT22;2376;53.544;10.226;2024-03-17T15:42:50;10.60;84.10
4725;DHT22;2376;53.544;10.226;2024-03-17T15:45:18;10.60;83.60
4725;DHT22;2376;53.544;10.226;2024-03-17T15:47:46;10.50;85.60
4725;DHT22;2376;53.544;10.226;2024-03-17T15:50:13;10.40;82.50
4725;DHT22;2376;53.544;10.226;2024-03-17T15:52:42;10.50;85.00
4725;DHT22;2376;53.544;10.226;2024-03-17T15:55:11;10.50;81.10
4725;DHT22;2376;53.544;10.226;2024-03-17T15:57:37;10.40;81.20
4725;DHT22;2376;53.544;10.226;2024-03-17T16:00:05;10.50;83.40
4725;DHT22;2376;53.544;10.226;2024-03-17T16:02:34;10.80;82.90
4725;DHT22;2376;53.544;10.226;2024-03-17T16:05:04;10.80;80.90
4725;DHT22;2376;53.544;10.226;2024-03-17T16:07:35;10.90;79.60